createdAt,value
2022-11-26T00:01:33.750Z,26.83
2022-11-26T00:04:03.877Z,29.47
2022-11-26T00:06:36.945Z,35.17
2022-11-26T00:09:08.508Z,33.00
2022-11-26T00:11:38.287Z,28.03
2022-11-26T00:14:15.883Z,27.40
2022-11-26T00:16:48.418Z,25.20
2022-11-26T00:19:18.256Z,30.67
2022-11-26T00:21:48.132Z,47.07
2022-11-26T00:24:48.398Z,27.30
2022-11-26T00:27:18.252Z,32.03
2022-11-26T00:29:48.214Z,33.17
2022-11-26T00:32:23.318Z,28.00
2022-11-26T00:34:53.274Z,32.70
2022-11-26T00:37:27.183Z,30.77
2022-11-26T00:39:58.469Z,39.27
2022-11-26T00:42:28.427Z,30.37
2022-11-26T00:44:58.234Z,39.27
2022-11-26T00:47:30.631Z,34.63
2022-11-26T00:50:00.470Z,32.47
2022-11-26T00:52:36.671Z,37.77
2022-11-26T00:55:13.161Z,36.17
2022-11-26T00:57:43.019Z,38.93
2022-11-26T01:00:18.705Z,38.20
2022-11-26T01:02:51.281Z,41.90
2022-11-26T01:05:22.287Z,45.70
2022-11-26T01:07:53.585Z,40.60
2022-11-26T01:10:25.199Z,32.83
2022-11-26T01:12:55.863Z,39.60
2022-11-26T01:15:29.212Z,37.87
2022-11-26T01:18:01.618Z,42.13
2022-11-26T01:20:33.576Z,33.37
2022-11-26T01:23:03.395Z,36.60
2022-11-26T01:25:33.225Z,31.40
2022-11-26T01:28:03.080Z,33.93
2022-11-26T01:30:35.678Z,38.57
2022-11-26T01:33:08.092Z,35.70
2022-11-26T01:35:38.380Z,31.67
2022-11-26T01:38:08.406Z,36.23
2022-11-26T01:41:05.909Z,37.30
2022-11-26T01:43:44.323Z,30.67
2022-11-26T01:46:18.511Z,38.00
2022-11-26T01:48:52.576Z,36.33
2022-11-26T01:51:27.870Z,34.07
2022-11-26T01:54:01.075Z,39.73
2022-11-26T01:56:36.607Z,39.73
2022-11-26T01:59:12.482Z,33.63
2022-11-26T02:01:42.755Z,34.00
2022-11-26T02:04:19.768Z,33.77
2022-11-26T02:06:51.971Z,35.67
2022-11-26T02:09:22.296Z,39.10
2022-11-26T02:11:52.667Z,39.37
2022-11-26T02:14:25.125Z,42.50
2022-11-26T02:17:04.165Z,46.57
2022-11-26T02:20:10.222Z,45.47
2022-11-26T02:23:10.124Z,54.80
2022-11-26T02:25:56.915Z,60.53
2022-11-26T02:28:45.505Z,50.87
2022-11-26T02:31:23.254Z,54.93
2022-11-26T02:33:58.807Z,48.60
2022-11-26T02:36:35.077Z,46.87
2022-11-26T02:39:14.480Z,54.10
2022-11-26T02:41:46.138Z,49.67
2022-11-26T02:44:17.769Z,47.10
2022-11-26T02:46:54.368Z,56.37
2022-11-26T02:49:25.598Z,50.40
2022-11-26T02:51:59.211Z,45.33
2022-11-26T02:54:30.635Z,46.07
2022-11-26T02:57:02.822Z,56.87
2022-11-26T02:59:33.221Z,47.53
2022-11-26T03:02:11.167Z,49.20
2022-11-26T03:04:45.701Z,44.83
2022-11-26T03:07:17.211Z,44.50
2022-11-26T03:09:53.733Z,50.43
2022-11-26T03:12:24.447Z,44.80
2022-11-26T03:14:54.618Z,44.40
2022-11-26T03:17:26.991Z,44.70
2022-11-26T03:19:56.876Z,43.70
2022-11-26T03:22:26.667Z,47.60
2022-11-26T03:24:56.519Z,39.10
2022-11-26T03:27:29.288Z,46.37
2022-11-26T03:29:59.204Z,51.13
2022-11-26T03:32:32.629Z,45.30
2022-11-26T03:35:02.488Z,44.67
2022-11-26T03:37:32.298Z,58.20
2022-11-26T03:40:02.123Z,43.87
2022-11-26T03:42:32.251Z,59.23
2022-11-26T03:45:02.332Z,46.40
2022-11-26T03:47:34.750Z,49.27
2022-11-26T03:50:04.555Z,53.40
2022-11-26T03:52:34.444Z,53.63
2022-11-26T03:55:04.391Z,44.50
2022-11-26T03:57:34.332Z,49.43
2022-11-26T04:00:04.804Z,42.27
2022-11-26T04:02:37.376Z,51.00
2022-11-26T04:05:08.205Z,48.63
2022-11-26T04:07:38.035Z,53.40
2022-11-26T04:10:09.247Z,46.07
2022-11-26T04:12:39.446Z,45.50
2022-11-26T04:15:10.693Z,55.63
2022-11-26T04:17:43.151Z,52.97
2022-11-26T04:20:13.867Z,47.13
2022-11-26T04:22:43.986Z,48.03
2022-11-26T04:25:13.875Z,42.87
2022-11-26T04:27:43.808Z,47.70
2022-11-26T04:30:14.762Z,49.70
2022-11-26T04:32:47.172Z,55.43
2022-11-26T04:35:18.447Z,49.20
2022-11-26T04:37:48.297Z,47.97
2022-11-26T04:40:18.294Z,60.47
2022-11-26T04:42:48.128Z,62.80
2022-11-26T04:45:18.171Z,67.73
2022-11-26T04:47:50.581Z,61.13
2022-11-26T04:50:20.623Z,60.47
2022-11-26T04:52:50.976Z,54.47
2022-11-26T04:55:21.548Z,55.67
2022-11-26T04:57:51.570Z,54.73
2022-11-26T05:00:22.558Z,57.33
2022-11-26T05:02:55.110Z,50.53
2022-11-26T05:05:25.114Z,53.60
2022-11-26T05:07:55.076Z,58.60
2022-11-26T05:10:24.981Z,65.80
2022-11-26T05:12:54.789Z,74.33
2022-11-26T05:15:24.608Z,60.63
2022-11-26T05:17:57.058Z,68.30
2022-11-26T05:20:27.166Z,64.33
2022-11-26T05:22:56.991Z,57.47
2022-11-26T05:25:26.806Z,59.50
2022-11-26T05:27:56.618Z,63.60
2022-11-26T05:30:26.477Z,74.03
2022-11-26T05:32:58.913Z,64.57
2022-11-26T05:35:28.741Z,64.70
2022-11-26T05:37:58.548Z,70.63
2022-11-26T05:40:28.380Z,69.23
2022-11-26T05:42:58.239Z,62.33
2022-11-26T05:45:28.123Z,66.10
2022-11-26T05:48:00.566Z,60.03
2022-11-26T05:50:30.498Z,55.03
2022-11-26T05:53:00.693Z,58.97
2022-11-26T05:55:30.596Z,66.20
2022-11-26T05:58:00.503Z,67.30
2022-11-26T06:00:34.055Z,63.03
2022-11-26T06:03:09.806Z,58.07
2022-11-26T06:05:39.786Z,64.80
2022-11-26T06:08:09.727Z,57.77
2022-11-26T06:10:39.707Z,74.00
2022-11-26T06:13:09.541Z,63.27
2022-11-26T06:15:39.396Z,63.17
2022-11-26T06:18:12.019Z,65.43
2022-11-26T06:20:41.967Z,67.33
2022-11-26T06:23:11.837Z,65.23
2022-11-26T06:25:45.491Z,66.10
2022-11-26T06:28:15.373Z,63.63
2022-11-26T06:30:47.120Z,74.37
2022-11-26T06:33:20.663Z,73.03
2022-11-26T06:35:50.598Z,74.30
2022-11-26T06:38:20.552Z,68.63
2022-11-26T06:40:50.430Z,63.17
2022-11-26T06:43:22.314Z,64.83
2022-11-26T06:45:52.293Z,83.47
2022-11-26T06:48:25.804Z,74.30
2022-11-26T06:50:55.766Z,75.57
2022-11-26T06:53:30.124Z,56.63
2022-11-26T06:56:02.685Z,81.23
2022-11-26T06:58:35.033Z,86.33
2022-11-26T07:01:11.218Z,78.33
2022-11-26T07:03:43.804Z,85.43
2022-11-26T07:06:20.994Z,81.40
2022-11-26T07:08:55.206Z,81.13
2022-11-26T07:11:27.553Z,85.90
2022-11-26T07:13:57.760Z,79.50
2022-11-26T07:16:28.358Z,80.07
2022-11-26T07:19:04.759Z,82.50
2022-11-26T07:21:35.743Z,86.70
2022-11-26T07:24:05.770Z,81.03
2022-11-26T07:26:35.753Z,85.70
2022-11-26T07:29:09.066Z,94.03
2022-11-26T07:31:42.201Z,93.70
2022-11-26T07:34:14.728Z,95.93
2022-11-26T07:36:45.347Z,95.30
2022-11-26T07:39:15.345Z,91.87
2022-11-26T07:41:45.187Z,101.53
2022-11-26T07:44:19.722Z,96.77
2022-11-26T07:46:53.152Z,101.07
2022-11-26T07:49:25.694Z,93.63
2022-11-26T07:51:55.617Z,112.97
2022-11-26T07:54:25.474Z,97.37
2022-11-26T07:56:56.465Z,102.90
2022-11-26T07:59:26.563Z,113.57
2022-11-26T08:02:00.221Z,112.77
2022-11-26T08:04:32.895Z,113.27
2022-11-26T08:07:08.851Z,118.27
2022-11-26T08:09:39.816Z,117.53
2022-11-26T08:12:10.861Z,113.03
2022-11-26T08:14:40.879Z,112.57
2022-11-26T08:17:10.907Z,125.43
2022-11-26T08:19:43.442Z,127.87
2022-11-26T08:22:13.360Z,116.43
2022-11-26T08:24:49.752Z,127.53
2022-11-26T08:27:19.673Z,123.63
2022-11-26T08:29:56.739Z,118.80
2022-11-26T08:32:30.049Z,124.57
2022-11-26T08:35:06.018Z,109.53
2022-11-26T08:37:39.123Z,128.33
2022-11-26T08:40:13.868Z,116.80
2022-11-26T08:42:43.970Z,136.37
2022-11-26T08:45:19.808Z,128.30
2022-11-26T08:47:49.781Z,116.47
2022-11-26T08:50:22.345Z,114.93
2022-11-26T08:52:53.242Z,131.43
2022-11-26T08:55:26.923Z,135.23
2022-11-26T08:57:56.967Z,123.00
2022-11-26T09:00:26.869Z,121.23
2022-11-26T09:02:56.813Z,132.00
2022-11-26T09:05:30.609Z,154.97
2022-11-26T09:08:04.156Z,151.20
2022-11-26T09:10:34.104Z,152.27
2022-11-26T09:13:04.021Z,146.20
2022-11-26T09:15:34.980Z,144.93
2022-11-26T09:18:04.876Z,167.27
2022-11-26T09:20:38.404Z,161.80
2022-11-26T09:23:08.329Z,173.13
2022-11-26T09:25:40.977Z,170.53
2022-11-26T09:28:10.945Z,166.10
2022-11-26T09:30:42.829Z,192.90
2022-11-26T09:33:14.786Z,162.93
2022-11-26T09:35:47.321Z,188.93
2022-11-26T09:38:18.238Z,189.50
2022-11-26T09:40:52.753Z,185.70
2022-11-26T09:43:31.034Z,182.83
2022-11-26T09:46:03.343Z,198.57
2022-11-26T09:48:36.288Z,158.30
2022-11-26T09:51:17.314Z,174.97
2022-11-26T09:53:51.841Z,173.57
2022-11-26T09:56:28.929Z,184.87
2022-11-26T09:59:02.861Z,169.17
2022-11-26T10:01:35.522Z,160.60
2022-11-26T10:04:12.324Z,171.47
2022-11-26T10:06:57.809Z,196.10
2022-11-26T10:09:44.230Z,172.80
2022-11-26T10:12:26.364Z,177.20
2022-11-26T10:15:03.038Z,176.67
2022-11-26T10:17:44.596Z,170.43
2022-11-26T10:20:58.398Z,175.80
2022-11-26T10:23:36.240Z,161.83
2022-11-26T10:26:10.628Z,165.23
2022-11-26T10:28:46.450Z,155.27
2022-11-26T10:31:24.489Z,151.43
2022-11-26T10:33:58.867Z,138.43
2022-11-26T10:36:35.665Z,163.93
2022-11-26T10:39:16.848Z,145.80
2022-11-26T10:41:50.021Z,140.67
2022-11-26T10:44:37.031Z,135.57
2022-11-26T10:47:25.260Z,141.87
2022-11-26T10:49:58.514Z,134.10
2022-11-26T10:52:31.581Z,128.73
2022-11-26T10:55:23.965Z,130.97
2022-11-26T10:57:56.510Z,131.00
2022-11-26T11:00:33.960Z,119.77
2022-11-26T11:03:06.510Z,115.97
2022-11-26T11:05:37.803Z,126.20
2022-11-26T11:08:09.805Z,104.43
2022-11-26T11:10:56.984Z,116.03
2022-11-26T11:13:41.972Z,109.43
2022-11-26T11:16:13.479Z,111.40
2022-11-26T11:18:52.673Z,108.17
2022-11-26T11:21:23.833Z,97.73
2022-11-26T11:24:11.515Z,97.17
2022-11-26T11:26:47.120Z,93.43
2022-11-26T11:29:32.974Z,103.40
2022-11-26T11:32:04.840Z,103.90
2022-11-26T11:34:38.783Z,83.73
2022-11-26T11:37:17.130Z,79.30
2022-11-26T11:39:47.561Z,82.43
2022-11-26T11:42:28.260Z,73.83
2022-11-26T11:45:00.841Z,97.17
2022-11-26T11:47:40.081Z,90.20
2022-11-26T11:50:24.013Z,75.23
2022-11-26T11:53:08.759Z,82.67
2022-11-26T11:55:55.856Z,76.13
2022-11-26T11:58:47.325Z,76.03
2022-11-26T12:01:31.569Z,61.20
2022-11-26T12:04:19.388Z,63.23
2022-11-26T12:07:05.427Z,66.53
2022-11-26T12:09:47.803Z,75.90
2022-11-26T12:12:24.669Z,65.43
2022-11-26T12:15:07.799Z,55.57
2022-11-26T12:17:46.349Z,57.80
2022-11-26T12:20:22.898Z,55.13
2022-11-26T12:23:00.225Z,62.60
2022-11-26T12:25:36.828Z,58.67
2022-11-26T12:28:14.998Z,57.70
2022-11-26T12:30:56.666Z,57.87
2022-11-26T12:33:36.719Z,50.57
2022-11-26T12:36:17.495Z,53.10
2022-11-26T12:38:54.318Z,55.03
2022-11-26T12:41:28.295Z,64.03
2022-11-26T12:44:07.220Z,43.83
2022-11-26T12:46:46.103Z,44.57
2022-11-26T12:49:25.040Z,58.23
2022-11-26T12:52:07.008Z,53.83
2022-11-26T12:54:45.270Z,40.40
2022-11-26T12:57:23.078Z,64.20
2022-11-26T13:00:06.355Z,42.33
2022-11-26T13:02:41.040Z,42.83
2022-11-26T13:05:20.565Z,52.57
2022-11-26T13:08:20.627Z,43.33
2022-11-26T13:11:10.509Z,49.87
2022-11-26T13:13:50.868Z,46.33
2022-11-26T13:16:34.961Z,43.43
2022-11-26T13:19:20.522Z,49.40
2022-11-26T13:22:09.248Z,45.10
2022-11-26T13:25:01.306Z,42.83
2022-11-26T13:27:50.946Z,40.20
2022-11-26T13:30:34.574Z,38.07
2022-11-26T13:33:29.157Z,44.67
2022-11-26T13:36:30.420Z,44.30
2022-11-26T13:39:13.979Z,48.40
2022-11-26T13:42:03.035Z,37.43
2022-11-26T13:45:18.403Z,37.83
2022-11-26T13:47:53.815Z,38.87
2022-11-26T13:50:29.459Z,40.90
2022-11-26T13:53:07.907Z,41.53
2022-11-26T13:55:48.391Z,46.50
2022-11-26T13:58:26.296Z,42.07
2022-11-26T14:00:57.250Z,31.83
2022-11-26T14:03:49.055Z,41.10
2022-11-26T14:06:20.000Z,43.33
2022-11-26T14:08:55.139Z,48.63
2022-11-26T14:11:59.709Z,37.53
2022-11-26T14:14:35.047Z,43.47
2022-11-26T14:17:20.794Z,33.07
2022-11-26T14:20:10.245Z,41.80
2022-11-26T14:22:41.941Z,37.63
2022-11-26T14:25:17.105Z,39.13
2022-11-26T14:27:56.573Z,36.27
2022-11-26T14:30:28.839Z,38.27
2022-11-26T14:33:08.561Z,41.33
2022-11-26T14:35:40.302Z,36.60
2022-11-26T14:38:26.179Z,37.57
2022-11-26T14:41:03.333Z,37.20
2022-11-26T14:43:35.308Z,52.13
2022-11-26T14:46:08.896Z,33.90
2022-11-26T14:48:45.291Z,49.33
2022-11-26T14:51:24.120Z,31.47
2022-11-26T14:53:57.341Z,51.83
2022-11-26T14:56:32.208Z,40.77
2022-11-26T14:59:04.772Z,33.10
2022-11-26T15:01:35.492Z,33.50
2022-11-26T15:04:07.775Z,47.03
2022-11-26T15:06:42.600Z,35.87
2022-11-26T15:09:19.159Z,39.50
2022-11-26T15:12:02.439Z,43.87
2022-11-26T15:14:44.510Z,46.20
2022-11-26T15:17:18.720Z,31.10
2022-11-26T15:19:51.900Z,45.13
2022-11-26T15:22:24.941Z,30.00
2022-11-26T15:24:56.549Z,38.63
2022-11-26T15:27:37.529Z,34.23
2022-11-26T15:30:21.496Z,46.63
2022-11-26T15:32:58.654Z,29.87
2022-11-26T15:35:29.268Z,40.80
2022-11-26T15:37:59.443Z,41.53
2022-11-26T15:40:33.616Z,32.83
2022-11-26T15:43:07.127Z,38.37
2022-11-26T15:45:40.712Z,38.23
2022-11-26T15:48:27.946Z,33.67
2022-11-26T15:51:13.633Z,35.37
2022-11-26T15:53:51.371Z,33.83
2022-11-26T15:56:23.763Z,33.53
2022-11-26T15:59:00.681Z,35.87
2022-11-26T16:01:35.896Z,37.93
2022-11-26T16:04:07.269Z,41.03
2022-11-26T16:06:40.100Z,35.70
2022-11-26T16:09:28.466Z,30.27
2022-11-26T16:12:02.658Z,44.57
2022-11-26T16:14:38.168Z,39.23
2022-11-26T16:17:14.259Z,32.63
2022-11-26T16:19:50.879Z,35.30
2022-11-26T16:22:28.217Z,52.50
2022-11-26T16:25:07.249Z,44.43
2022-11-26T16:27:38.054Z,38.27
2022-11-26T16:30:17.719Z,34.53
2022-11-26T16:32:47.590Z,36.33
2022-11-26T16:35:44.030Z,33.30
2022-11-26T16:38:07.615Z,42.30
2022-11-26T16:40:38.556Z,42.60
2022-11-26T16:43:08.423Z,37.70
2022-11-26T16:45:41.154Z,35.40
2022-11-26T16:48:22.807Z,41.07
2022-11-26T16:50:54.433Z,34.43
2022-11-26T16:53:24.528Z,23.23
2022-11-26T16:55:56.770Z,31.20
2022-11-26T16:58:30.519Z,32.03
2022-11-26T17:01:04.874Z,32.90
2022-11-26T17:03:35.441Z,31.20
2022-11-26T17:06:12.814Z,36.57
2022-11-26T17:08:49.496Z,31.90
2022-11-26T17:11:21.282Z,25.97
2022-11-26T17:13:52.270Z,38.80
2022-11-26T17:16:26.654Z,30.90
2022-11-26T17:18:56.634Z,29.50
2022-11-26T17:21:27.578Z,36.43
2022-11-26T17:23:58.531Z,31.27
2022-11-26T17:26:28.578Z,37.77
2022-11-26T17:28:58.550Z,26.17
2022-11-26T17:31:31.600Z,28.77
2022-11-26T17:34:02.565Z,31.20
2022-11-26T17:36:36.831Z,30.60
2022-11-26T17:39:08.222Z,31.90
2022-11-26T17:41:38.146Z,31.53
2022-11-26T17:44:08.090Z,29.07
2022-11-26T17:47:08.949Z,27.23
2022-11-26T17:49:30.922Z,36.00
2022-11-26T17:52:00.863Z,28.03
2022-11-26T17:54:30.832Z,27.97
2022-11-26T17:57:01.923Z,31.37
2022-11-26T17:59:31.954Z,35.53
2022-11-26T18:02:05.693Z,27.43
2022-11-26T18:04:36.504Z,25.83
2022-11-26T18:07:10.293Z,28.20
2022-11-26T18:09:40.698Z,25.33
2022-11-26T18:12:23.160Z,26.33
2022-11-26T18:14:54.816Z,26.43
2022-11-26T18:17:28.419Z,32.47
2022-11-26T18:19:59.056Z,27.47
2022-11-26T18:22:30.467Z,27.83
2022-11-26T18:25:01.398Z,24.50
2022-11-26T18:27:33.759Z,25.70
2022-11-26T18:30:04.816Z,23.70
2022-11-26T18:32:38.730Z,26.07
2022-11-26T18:35:10.906Z,26.03
2022-11-26T18:37:42.514Z,28.20
2022-11-26T18:40:17.116Z,23.73
2022-11-26T18:42:47.293Z,29.35
2022-11-26T18:45:19.394Z,27.00
2022-11-26T18:47:51.967Z,31.13
2022-11-26T18:50:22.299Z,26.43
2022-11-26T18:52:52.365Z,31.97
2022-11-26T18:55:23.335Z,29.57
2022-11-26T18:57:53.251Z,22.67
2022-11-26T19:00:23.787Z,44.60
2022-11-26T19:02:56.369Z,50.10
2022-11-26T19:05:26.379Z,26.53
2022-11-26T19:07:56.484Z,30.80
2022-11-26T19:10:26.857Z,28.07
2022-11-26T19:12:56.870Z,26.27
2022-11-26T19:15:27.859Z,29.27
2022-11-26T19:18:00.756Z,26.80
2022-11-26T19:20:30.633Z,18.80
2022-11-26T19:23:01.644Z,25.27
2022-11-26T19:25:32.077Z,28.43
2022-11-26T19:28:04.958Z,28.50
2022-11-26T19:30:35.251Z,22.30
2022-11-26T19:33:12.101Z,27.37
2022-11-26T19:35:43.177Z,22.27
2022-11-26T19:38:17.121Z,18.70
2022-11-26T19:40:48.868Z,23.77
2022-11-26T19:43:20.938Z,29.50
2022-11-26T19:45:52.649Z,22.47
2022-11-26T19:48:27.696Z,18.77
2022-11-26T19:50:59.588Z,29.30
2022-11-26T19:53:32.527Z,22.93
2022-11-26T19:56:04.963Z,22.80
2022-11-26T19:58:40.325Z,24.00
2022-11-26T20:01:14.976Z,28.37
2022-11-26T20:03:50.284Z,19.60
2022-11-26T20:06:22.807Z,21.80
2022-11-26T20:08:53.455Z,18.80
2022-11-26T20:11:28.362Z,27.57
2022-11-26T20:14:03.665Z,28.10
2022-11-26T20:16:36.798Z,27.57
2022-11-26T20:19:16.524Z,18.30
2022-11-26T20:21:48.918Z,20.20
2022-11-26T20:24:21.482Z,21.33
2022-11-26T20:26:53.272Z,18.07
2022-11-26T20:29:29.843Z,19.00
2022-11-26T20:32:01.086Z,27.13
2022-11-26T20:34:33.781Z,22.73
2022-11-26T20:37:04.232Z,32.53
2022-11-26T20:39:35.833Z,25.07
2022-11-26T20:42:07.098Z,26.27
2022-11-26T20:44:37.806Z,23.93
2022-11-26T20:47:08.003Z,21.30
2022-11-26T20:49:43.113Z,22.87
2022-11-26T20:52:13.405Z,21.83
2022-11-26T20:54:45.177Z,25.73
2022-11-26T20:57:18.843Z,30.23
2022-11-26T20:59:50.120Z,39.37
2022-11-26T21:02:22.498Z,29.77
2022-11-26T21:04:56.152Z,25.53
2022-11-26T21:07:27.554Z,23.20
2022-11-26T21:09:59.114Z,19.30
2022-11-26T21:12:29.153Z,26.90
2022-11-26T21:14:59.083Z,22.20
2022-11-26T21:17:30.004Z,23.10
2022-11-26T21:20:02.561Z,27.70
2022-11-26T21:22:33.466Z,25.70
2022-11-26T21:25:04.430Z,21.50
2022-11-26T21:27:35.126Z,22.73
2022-11-26T21:30:05.316Z,27.70
2022-11-26T21:32:35.198Z,20.37
2022-11-26T21:35:08.550Z,24.43
2022-11-26T21:37:38.523Z,20.30
2022-11-26T21:40:10.132Z,28.83
2022-11-26T21:42:40.034Z,29.53
2022-11-26T21:45:12.209Z,18.47
2022-11-26T21:47:44.194Z,28.17
2022-11-26T21:50:17.901Z,26.10
2022-11-26T21:52:49.360Z,18.00
2022-11-26T21:55:21.743Z,23.80
2022-11-26T21:57:51.765Z,19.30
2022-11-26T22:00:23.366Z,26.47
2022-11-26T22:02:53.373Z,25.40
2022-11-26T22:05:25.980Z,24.53
2022-11-26T22:07:56.991Z,31.20
2022-11-26T22:10:29.743Z,23.33
2022-11-26T22:13:01.982Z,21.03
2022-11-26T22:15:31.994Z,26.27
2022-11-26T22:18:02.957Z,30.67
2022-11-26T22:20:36.517Z,33.67
2022-11-26T22:23:07.362Z,24.07
2022-11-26T22:25:37.602Z,24.40
2022-11-26T22:28:07.927Z,26.60
2022-11-26T22:30:39.487Z,28.33
2022-11-26T22:33:09.652Z,33.13
2022-11-26T22:35:43.223Z,22.63
2022-11-26T22:38:13.470Z,31.20
2022-11-26T22:40:43.363Z,27.30
2022-11-26T22:43:13.276Z,32.17
2022-11-26T22:45:43.235Z,30.83
2022-11-26T22:48:14.659Z,44.07
2022-11-26T22:50:53.086Z,39.83
2022-11-26T22:53:23.567Z,35.37
2022-11-26T22:55:55.663Z,32.60
2022-11-26T22:58:28.644Z,28.90
2022-11-26T23:01:01.743Z,26.53
2022-11-26T23:03:32.819Z,28.87
2022-11-26T23:06:09.395Z,29.43
2022-11-26T23:08:40.106Z,34.20
2022-11-26T23:11:19.240Z,23.27
2022-11-26T23:13:50.819Z,26.03
2022-11-26T23:16:22.686Z,24.90
2022-11-26T23:18:56.550Z,19.90
2022-11-26T23:21:30.571Z,24.80
2022-11-26T23:24:00.861Z,21.53
2022-11-26T23:26:33.430Z,23.57
2022-11-26T23:29:05.720Z,23.37
2022-11-26T23:31:38.466Z,32.40
2022-11-26T23:34:09.225Z,25.90
2022-11-26T23:36:42.133Z,27.83
2022-11-26T23:39:15.148Z,36.40
2022-11-26T23:41:45.211Z,25.50
2022-11-26T23:44:16.210Z,30.37
2022-11-26T23:46:47.322Z,31.50
2022-11-26T23:49:17.414Z,35.43
2022-11-26T23:51:49.991Z,38.13
2022-11-26T23:54:19.948Z,25.97
2022-11-26T23:56:49.854Z,31.53
2022-11-26T23:59:21.043Z,26.27
